createdAt,value
2022-10-26T00:00:00.337Z,14.85
2022-10-26T00:01:09.150Z,14.43
2022-10-26T00:02:05.975Z,18.52
2022-10-26T00:03:02.627Z,17.10
2022-10-26T00:03:59.207Z,16.98
2022-10-26T00:04:55.748Z,15.65
2022-10-26T00:05:52.345Z,18.98
2022-10-26T00:06:49.002Z,18.85
2022-10-26T00:07:45.585Z,15.65
2022-10-26T00:08:42.792Z,9.98
2022-10-26T00:09:39.339Z,18.15
2022-10-26T00:10:40.251Z,15.40
2022-10-26T00:11:36.885Z,20.70
2022-10-26T00:12:33.435Z,14.35
2022-10-26T00:13:30.238Z,14.90
2022-10-26T00:14:27.203Z,15.73
2022-10-26T00:15:23.774Z,14.68
2022-10-26T00:16:24.478Z,16.92
2022-10-26T00:17:21.133Z,15.40
2022-10-26T00:18:17.679Z,12.85
2022-10-26T00:19:14.356Z,19.60
2022-10-26T00:20:11.382Z,19.63
2022-10-26T00:21:09.788Z,20.83
2022-10-26T00:22:06.391Z,21.67
2022-10-26T00:23:02.976Z,22.67
2022-10-26T00:24:00.204Z,21.80
2022-10-26T00:24:56.772Z,24.45
2022-10-26T00:25:57.068Z,15.23
2022-10-26T00:26:53.638Z,14.77
2022-10-26T00:27:50.372Z,11.27
2022-10-26T00:28:47.340Z,13.35
2022-10-26T00:29:44.068Z,15.68
2022-10-26T00:30:40.742Z,24.45
2022-10-26T00:31:37.346Z,13.07
2022-10-26T00:32:34.331Z,15.90
2022-10-26T00:33:32.462Z,18.45
2022-10-26T00:34:29.031Z,22.25
2022-10-26T00:35:44.505Z,21.50
2022-10-26T00:36:42.009Z,11.70
2022-10-26T00:37:38.590Z,25.08
2022-10-26T00:38:35.143Z,22.67
2022-10-26T00:39:31.864Z,20.27
2022-10-26T00:40:29.387Z,17.58
2022-10-26T00:41:29.380Z,10.23
2022-10-26T00:42:26.142Z,12.55
2022-10-26T00:43:22.753Z,15.52
2022-10-26T00:44:47.471Z,13.75
2022-10-26T00:45:45.403Z,12.73
2022-10-26T00:46:41.956Z,23.05
2022-10-26T00:47:45.220Z,17.02
2022-10-26T00:48:45.956Z,22.83
2022-10-26T00:49:46.676Z,17.95
2022-10-26T00:50:46.692Z,21.42
2022-10-26T00:51:48.732Z,17.92
2022-10-26T00:52:45.415Z,14.48
2022-10-26T00:53:42.668Z,19.33
2022-10-26T00:54:39.633Z,15.50
2022-10-26T00:55:40.425Z,16.25
2022-10-26T00:56:37.342Z,21.70
2022-10-26T00:58:32.670Z,16.05
2022-10-26T00:59:29.382Z,21.50
2022-10-26T01:00:26.025Z,15.88
2022-10-26T01:01:22.695Z,16.50
2022-10-26T01:02:19.423Z,13.45
2022-10-26T01:03:17.106Z,18.73
2022-10-26T01:04:14.781Z,16.85
2022-10-26T01:05:12.460Z,17.23
2022-10-26T01:06:13.603Z,17.95
2022-10-26T01:07:10.704Z,13.52
2022-10-26T01:08:09.358Z,18.98
2022-10-26T01:09:06.270Z,20.02
2022-10-26T01:10:03.014Z,16.20
2022-10-26T01:11:00.437Z,15.95
2022-10-26T01:11:56.996Z,12.95
2022-10-26T01:12:56.768Z,12.48
2022-10-26T01:13:54.191Z,28.85
2022-10-26T01:14:50.880Z,17.80
2022-10-26T01:16:10.658Z,13.35
2022-10-26T01:17:10.339Z,24.20
2022-10-26T01:18:17.602Z,22.25
2022-10-26T01:19:35.611Z,17.33
2022-10-26T01:21:09.562Z,23.65
2022-10-26T01:22:19.691Z,17.02
2022-10-26T01:23:48.763Z,14.88
2022-10-26T01:24:51.113Z,10.43
2022-10-26T01:26:17.493Z,22.02
2022-10-26T01:27:48.795Z,13.23
2022-10-26T01:29:13.296Z,21.95
2022-10-26T01:30:31.172Z,25.73
2022-10-26T01:31:34.343Z,34.25
2022-10-26T01:32:42.975Z,24.33
2022-10-26T01:33:52.061Z,17.65
2022-10-26T01:35:14.839Z,17.88
2022-10-26T01:36:26.266Z,23.92
2022-10-26T01:37:29.415Z,20.33
2022-10-26T01:38:35.740Z,20.52
2022-10-26T01:39:46.092Z,16.42
2022-10-26T01:40:54.694Z,18.10
2022-10-26T01:41:53.211Z,17.67
2022-10-26T01:42:53.802Z,15.73
2022-10-26T01:43:56.701Z,15.75
2022-10-26T01:44:59.022Z,15.13
2022-10-26T01:45:57.274Z,22.77
2022-10-26T01:46:56.854Z,28.23
2022-10-26T01:47:56.503Z,29.50
2022-10-26T01:48:59.069Z,18.75
2022-10-26T01:49:58.531Z,19.90
2022-10-26T01:50:57.764Z,16.70
2022-10-26T01:51:54.757Z,20.95
2022-10-26T01:52:51.462Z,19.95
2022-10-26T01:53:48.073Z,16.70
2022-10-26T01:54:44.746Z,20.17
2022-10-26T01:55:51.556Z,20.98
2022-10-26T01:56:53.785Z,19.10
2022-10-26T01:57:51.964Z,21.00
2022-10-26T01:59:07.272Z,31.70
2022-10-26T02:00:12.002Z,17.55
2022-10-26T02:01:29.539Z,14.48
2022-10-26T02:02:34.561Z,11.00
2022-10-26T02:03:54.367Z,16.63
2022-10-26T02:05:00.329Z,14.70
2022-10-26T02:06:35.937Z,18.25
2022-10-26T02:07:41.750Z,15.23
2022-10-26T02:08:54.248Z,19.52
2022-10-26T02:10:13.808Z,25.27
2022-10-26T02:11:34.911Z,20.45
2022-10-26T02:12:50.042Z,25.52
2022-10-26T02:13:56.417Z,24.45
2022-10-26T02:15:32.203Z,21.27
2022-10-26T02:16:48.664Z,27.05
2022-10-26T02:17:50.961Z,17.75
2022-10-26T02:19:58.557Z,22.02
2022-10-26T02:21:17.855Z,23.17
2022-10-26T02:22:32.181Z,18.30
2022-10-26T02:23:32.763Z,24.38
2022-10-26T02:24:31.876Z,16.40
2022-10-26T02:25:32.514Z,18.95
2022-10-26T02:26:32.844Z,19.23
2022-10-26T02:27:35.116Z,12.27
2022-10-26T02:28:37.728Z,32.53
2022-10-26T02:29:35.546Z,23.17
2022-10-26T02:30:35.178Z,14.05
2022-10-26T02:31:33.938Z,18.70
2022-10-26T02:32:35.215Z,20.17
2022-10-26T02:33:36.885Z,21.40
2022-10-26T02:34:37.595Z,16.50
2022-10-26T02:35:36.850Z,14.10
2022-10-26T02:36:36.604Z,19.88
2022-10-26T02:37:35.746Z,18.08
2022-10-26T02:38:34.514Z,19.13
2022-10-26T02:39:34.686Z,24.88
2022-10-26T02:40:33.598Z,24.30
2022-10-26T02:41:31.050Z,19.95
2022-10-26T02:42:28.337Z,15.25
2022-10-26T02:43:26.720Z,18.17
2022-10-26T02:44:30.171Z,15.40
2022-10-26T02:45:33.434Z,27.95
2022-10-26T02:46:30.196Z,15.70
2022-10-26T02:47:27.629Z,16.92
2022-10-26T02:48:24.542Z,16.83
2022-10-26T02:49:21.762Z,23.92
2022-10-26T02:50:22.527Z,29.38
2022-10-26T02:51:40.117Z,28.13
2022-10-26T02:52:51.585Z,13.40
2022-10-26T02:53:54.891Z,16.42
2022-10-26T02:54:57.761Z,24.00
2022-10-26T02:55:54.489Z,27.90
2022-10-26T02:56:59.924Z,29.92
2022-10-26T02:58:02.829Z,20.15
2022-10-26T02:59:04.561Z,35.25
2022-10-26T03:00:03.644Z,29.40
2022-10-26T03:01:00.575Z,15.02
2022-10-26T03:01:58.287Z,20.60
2022-10-26T03:02:58.086Z,21.75
2022-10-26T03:03:58.235Z,27.60
2022-10-26T03:04:56.349Z,29.92
2022-10-26T03:05:52.921Z,20.40
2022-10-26T03:06:54.408Z,16.52
2022-10-26T03:07:51.048Z,25.77
2022-10-26T03:08:47.653Z,19.95
2022-10-26T03:09:44.263Z,29.83
2022-10-26T03:10:43.215Z,26.08
2022-10-26T03:11:39.770Z,34.67
2022-10-26T03:12:36.351Z,24.23
2022-10-26T03:13:32.933Z,16.80
2022-10-26T03:14:29.464Z,28.50
2022-10-26T03:15:26.120Z,24.30
2022-10-26T03:16:22.712Z,19.67
2022-10-26T03:17:19.274Z,15.73
2022-10-26T03:18:15.879Z,14.18
2022-10-26T03:19:12.524Z,14.13
2022-10-26T03:20:09.804Z,13.93
2022-10-26T03:21:06.451Z,11.63
2022-10-26T03:22:03.026Z,15.05
2022-10-26T03:22:59.710Z,24.88
2022-10-26T03:23:56.355Z,22.73
2022-10-26T03:24:52.911Z,33.53
2022-10-26T03:25:49.460Z,26.23
2022-10-26T03:26:46.058Z,32.80
2022-10-26T03:27:43.237Z,27.02
2022-10-26T03:28:39.788Z,24.67
2022-10-26T03:29:36.355Z,19.77
2022-10-26T03:30:33.387Z,22.13
2022-10-26T03:31:29.952Z,23.48
2022-10-26T03:32:26.612Z,24.77
2022-10-26T03:33:25.680Z,12.73
2022-10-26T03:34:24.477Z,22.10
2022-10-26T03:35:21.673Z,25.58
2022-10-26T03:36:18.369Z,23.70
2022-10-26T03:37:14.960Z,18.48
2022-10-26T03:38:15.264Z,25.00
2022-10-26T03:39:12.784Z,21.83
2022-10-26T03:40:10.146Z,23.38
2022-10-26T03:41:06.839Z,17.52
2022-10-26T03:42:03.481Z,20.40
2022-10-26T03:43:00.114Z,23.80
2022-10-26T03:43:56.766Z,23.65
2022-10-26T03:44:53.359Z,21.20
2022-10-26T03:45:49.941Z,13.82
2022-10-26T03:46:46.527Z,18.45
2022-10-26T03:47:45.195Z,15.95
2022-10-26T03:48:41.847Z,16.42
2022-10-26T03:49:38.426Z,15.75
2022-10-26T03:50:35.003Z,13.05
2022-10-26T03:51:32.091Z,22.38
2022-10-26T03:52:28.678Z,23.15
2022-10-26T03:53:26.363Z,14.15
2022-10-26T03:54:26.177Z,10.88
2022-10-26T03:55:22.743Z,16.90
2022-10-26T03:56:19.293Z,29.88
2022-10-26T03:57:15.866Z,20.77
2022-10-26T03:58:12.527Z,14.25
2022-10-26T03:59:09.205Z,20.42
2022-10-26T04:00:06.387Z,27.63
2022-10-26T04:01:03.035Z,24.42
2022-10-26T04:01:59.752Z,20.38
2022-10-26T04:02:58.427Z,14.77
2022-10-26T04:03:54.988Z,19.27
2022-10-26T04:04:51.609Z,23.98
2022-10-26T04:05:48.166Z,20.05
2022-10-26T04:06:47.703Z,16.48
2022-10-26T04:07:44.284Z,18.00
2022-10-26T04:08:40.843Z,13.98
2022-10-26T04:09:37.383Z,15.25
2022-10-26T04:10:34.154Z,15.07
2022-10-26T04:11:30.799Z,10.80
2022-10-26T04:12:27.531Z,14.90
2022-10-26T04:13:24.384Z,24.15
2022-10-26T04:14:20.974Z,24.02
2022-10-26T04:15:20.093Z,21.23
2022-10-26T04:16:16.638Z,23.63
2022-10-26T04:17:13.243Z,23.60
2022-10-26T04:18:13.025Z,17.92
2022-10-26T04:19:09.646Z,18.73
2022-10-26T04:20:06.880Z,20.15
2022-10-26T04:21:03.639Z,25.55
2022-10-26T04:22:00.172Z,16.92
2022-10-26T04:23:00.977Z,14.60
2022-10-26T04:23:57.511Z,15.85
2022-10-26T04:24:54.067Z,17.83
2022-10-26T04:25:50.758Z,14.48
2022-10-26T04:26:47.311Z,17.55
2022-10-26T04:27:43.879Z,13.27
2022-10-26T04:28:40.442Z,10.15
2022-10-26T04:29:36.981Z,14.95
2022-10-26T04:30:34.855Z,14.50
2022-10-26T04:31:31.570Z,15.27
2022-10-26T04:32:28.211Z,14.68
2022-10-26T04:33:24.854Z,15.20
2022-10-26T04:34:21.376Z,15.77
2022-10-26T04:35:18.011Z,13.43
2022-10-26T04:36:14.643Z,21.40
2022-10-26T04:37:11.297Z,18.17
2022-10-26T04:38:07.997Z,18.90
2022-10-26T04:39:04.554Z,13.90
2022-10-26T04:40:01.166Z,19.88
2022-10-26T04:40:57.735Z,20.17
2022-10-26T04:41:54.875Z,23.02
2022-10-26T04:42:51.853Z,15.60
2022-10-26T04:43:48.791Z,22.48
2022-10-26T04:44:45.323Z,13.82
2022-10-26T04:45:41.876Z,11.90
2022-10-26T04:46:38.498Z,16.58
2022-10-26T04:47:35.099Z,24.08
2022-10-26T04:48:31.761Z,19.77
2022-10-26T04:49:28.399Z,9.05
2022-10-26T04:50:27.581Z,11.57
2022-10-26T04:51:25.035Z,17.60
2022-10-26T04:52:21.570Z,19.23
2022-10-26T04:53:18.120Z,20.95
2022-10-26T04:54:15.085Z,12.80
2022-10-26T04:55:11.636Z,30.35
2022-10-26T04:56:08.922Z,12.35
2022-10-26T04:57:05.531Z,16.05
2022-10-26T04:58:02.588Z,20.85
2022-10-26T04:58:59.251Z,15.07
2022-10-26T04:59:55.803Z,14.95
2022-10-26T05:00:52.363Z,19.17
2022-10-26T05:01:49.085Z,22.40
2022-10-26T05:02:45.772Z,24.85
2022-10-26T05:03:42.333Z,25.73
2022-10-26T05:04:38.904Z,25.35
2022-10-26T05:05:36.725Z,24.27
2022-10-26T05:06:33.279Z,24.83
2022-10-26T05:07:29.827Z,19.73
2022-10-26T05:08:29.219Z,18.48
2022-10-26T05:09:25.817Z,18.33
2022-10-26T05:10:22.827Z,24.35
2022-10-26T05:11:19.559Z,20.88
2022-10-26T05:12:16.158Z,24.00
2022-10-26T05:13:12.708Z,30.42
2022-10-26T05:14:09.851Z,16.95
2022-10-26T05:15:08.579Z,23.85
2022-10-26T05:16:05.780Z,21.90
2022-10-26T05:17:02.396Z,21.35
2022-10-26T05:18:02.982Z,18.75
2022-10-26T05:18:59.618Z,15.32
2022-10-26T05:19:58.129Z,27.20
2022-10-26T05:20:55.592Z,25.23
2022-10-26T05:21:53.479Z,17.15
2022-10-26T05:22:53.374Z,19.85
2022-10-26T05:23:55.370Z,21.13
2022-10-26T05:24:52.149Z,20.63
2022-10-26T05:25:49.359Z,15.43
2022-10-26T05:26:46.291Z,20.13
2022-10-26T05:27:42.831Z,13.77
2022-10-26T05:28:39.376Z,15.60
2022-10-26T05:29:35.906Z,12.32
2022-10-26T05:30:32.792Z,20.35
2022-10-26T05:31:29.441Z,26.38
2022-10-26T05:32:26.034Z,23.70
2022-10-26T05:33:23.807Z,15.38
2022-10-26T05:34:20.392Z,16.42
2022-10-26T05:35:16.937Z,14.25
2022-10-26T05:36:13.529Z,22.42
2022-10-26T05:37:10.092Z,18.50
2022-10-26T05:38:08.655Z,22.83
2022-10-26T05:39:05.346Z,16.30
2022-10-26T05:40:01.946Z,11.60
2022-10-26T05:40:59.354Z,14.45
2022-10-26T05:41:55.932Z,16.85
2022-10-26T05:42:53.060Z,15.23
2022-10-26T05:43:49.899Z,21.98
2022-10-26T05:44:46.889Z,15.75
2022-10-26T05:45:43.644Z,11.63
2022-10-26T05:46:40.368Z,12.45
2022-10-26T05:47:45.619Z,13.25
2022-10-26T05:48:42.290Z,15.18
2022-10-26T05:49:38.825Z,15.40
2022-10-26T05:50:35.577Z,11.63
2022-10-26T05:51:37.225Z,13.07
2022-10-26T05:52:47.199Z,16.93
2022-10-26T05:53:43.745Z,11.38
2022-10-26T05:54:40.414Z,16.85
2022-10-26T05:55:37.740Z,13.68
2022-10-26T05:56:43.907Z,10.75
2022-10-26T05:57:41.374Z,9.55
2022-10-26T05:58:39.280Z,11.57
2022-10-26T05:59:36.086Z,15.95
2022-10-26T06:00:33.069Z,16.02
2022-10-26T06:02:00.616Z,15.07
2022-10-26T06:03:16.364Z,13.93
2022-10-26T06:04:27.967Z,8.55
2022-10-26T06:05:27.796Z,14.07
2022-10-26T06:06:24.739Z,13.93
2022-10-26T06:07:21.562Z,13.10
2022-10-26T06:08:18.716Z,13.85
2022-10-26T06:09:15.995Z,14.88
2022-10-26T06:10:13.200Z,12.50
2022-10-26T06:11:10.528Z,17.00
2022-10-26T06:12:07.898Z,12.10
2022-10-26T06:13:04.758Z,12.63
2022-10-26T06:14:01.637Z,16.55
2022-10-26T06:14:58.782Z,17.20
2022-10-26T06:16:23.096Z,14.73
2022-10-26T06:17:42.008Z,16.23
2022-10-26T06:19:03.307Z,10.45
2022-10-26T06:20:03.267Z,7.78
2022-10-26T06:21:23.588Z,14.35
2022-10-26T06:22:39.468Z,12.80
2022-10-26T06:23:53.554Z,9.98
2022-10-26T06:24:53.238Z,9.25
2022-10-26T06:25:58.936Z,12.40
2022-10-26T06:26:55.484Z,15.07
2022-10-26T06:28:14.468Z,11.90
2022-10-26T06:29:32.339Z,15.05
2022-10-26T06:30:29.023Z,10.43
2022-10-26T06:31:25.623Z,13.65
2022-10-26T06:32:25.029Z,15.07
2022-10-26T06:33:29.545Z,11.10
2022-10-26T06:34:33.350Z,11.07
2022-10-26T06:35:43.458Z,7.70
2022-10-26T06:36:41.647Z,14.13
2022-10-26T06:37:39.750Z,11.85
2022-10-26T06:38:38.248Z,11.20
2022-10-26T06:39:39.416Z,13.35
2022-10-26T06:40:39.811Z,11.50
2022-10-26T06:41:37.166Z,9.52
2022-10-26T06:42:33.998Z,10.93
2022-10-26T06:43:34.699Z,12.20
2022-10-26T06:44:31.562Z,12.77
2022-10-26T06:45:28.380Z,13.13
2022-10-26T06:46:31.832Z,13.90
2022-10-26T06:47:42.440Z,14.30
2022-10-26T06:48:56.380Z,16.52
2022-10-26T06:50:07.244Z,12.27
2022-10-26T06:51:04.076Z,13.15
2022-10-26T06:52:16.975Z,11.63
2022-10-26T06:53:22.739Z,13.85
2022-10-26T06:54:23.765Z,14.98
2022-10-26T06:55:21.973Z,13.93
2022-10-26T06:56:19.277Z,17.13
2022-10-26T06:57:17.800Z,13.35
2022-10-26T06:58:18.271Z,12.18
2022-10-26T06:59:29.914Z,12.20
2022-10-26T07:00:27.063Z,10.88
2022-10-26T07:01:23.862Z,14.13
2022-10-26T07:02:20.996Z,11.23
2022-10-26T07:03:17.667Z,15.30
2022-10-26T07:04:14.271Z,16.48
2022-10-26T07:05:12.988Z,16.10
2022-10-26T07:06:10.037Z,10.88
2022-10-26T07:07:07.202Z,11.68
2022-10-26T07:08:04.991Z,14.57
2022-10-26T07:09:01.567Z,15.40
2022-10-26T07:09:58.163Z,12.88
2022-10-26T07:10:54.742Z,11.77
2022-10-26T07:11:51.311Z,15.00
2022-10-26T07:12:47.949Z,13.23
2022-10-26T07:13:44.495Z,18.38
2022-10-26T07:14:41.314Z,9.15
2022-10-26T07:15:39.135Z,17.15
2022-10-26T07:16:35.733Z,17.73
2022-10-26T07:17:32.326Z,17.92
2022-10-26T07:18:28.950Z,16.95
2022-10-26T07:19:25.645Z,12.57
2022-10-26T07:20:22.368Z,10.45
2022-10-26T07:21:18.975Z,18.15
2022-10-26T07:22:15.579Z,12.13
2022-10-26T07:23:12.270Z,11.88
2022-10-26T07:24:09.184Z,12.27
2022-10-26T07:25:08.056Z,11.13
2022-10-26T07:26:04.801Z,16.88
2022-10-26T07:27:01.523Z,11.38
2022-10-26T07:27:59.359Z,13.35
2022-10-26T07:28:56.005Z,11.52
2022-10-26T07:29:52.573Z,23.52
2022-10-26T07:30:53.932Z,17.67
2022-10-26T07:32:51.261Z,15.52
2022-10-26T07:33:48.139Z,14.15
2022-10-26T07:34:44.711Z,8.05
2022-10-26T07:35:41.390Z,11.45
2022-10-26T07:36:37.961Z,10.52
2022-10-26T07:37:34.525Z,11.30
2022-10-26T07:38:31.114Z,13.90
2022-10-26T07:39:27.831Z,11.20
2022-10-26T07:40:24.686Z,11.32
2022-10-26T07:41:21.280Z,11.52
2022-10-26T07:42:17.904Z,11.05
2022-10-26T07:43:14.484Z,14.40
2022-10-26T07:44:11.039Z,14.30
2022-10-26T07:45:08.059Z,15.02
2022-10-26T07:46:04.772Z,9.15
2022-10-26T07:47:01.548Z,12.90
2022-10-26T07:47:58.273Z,11.82
2022-10-26T07:48:55.042Z,14.38
2022-10-26T07:49:51.599Z,8.00
2022-10-26T07:50:48.295Z,9.88
2022-10-26T07:51:45.060Z,7.85
2022-10-26T07:52:41.956Z,10.82
2022-10-26T07:53:38.671Z,13.55
2022-10-26T07:54:35.267Z,10.63
2022-10-26T07:55:31.862Z,16.42
2022-10-26T07:56:28.940Z,14.15
2022-10-26T07:57:25.477Z,17.17
2022-10-26T07:58:25.792Z,9.23
2022-10-26T07:59:22.339Z,12.55
2022-10-26T08:00:19.000Z,31.65
2022-10-26T08:01:16.354Z,15.77
2022-10-26T08:02:13.099Z,17.13
2022-10-26T08:03:09.665Z,13.70
2022-10-26T08:04:06.235Z,16.13
2022-10-26T08:05:03.620Z,15.45
2022-10-26T08:06:00.767Z,12.45
2022-10-26T08:06:57.782Z,14.55
2022-10-26T08:07:54.331Z,11.23
2022-10-26T08:08:51.853Z,10.25
2022-10-26T08:09:48.405Z,13.27
2022-10-26T08:10:46.124Z,14.18
2022-10-26T08:11:42.672Z,12.75
2022-10-26T08:12:39.688Z,19.77
2022-10-26T08:13:36.255Z,13.38
2022-10-26T08:14:32.879Z,10.95
2022-10-26T08:15:29.438Z,9.27
2022-10-26T08:16:26.113Z,11.30
2022-10-26T08:17:23.072Z,11.23
2022-10-26T08:18:19.620Z,13.68
2022-10-26T08:19:16.259Z,13.38
2022-10-26T08:20:13.195Z,9.73
2022-10-26T08:21:21.666Z,15.13
2022-10-26T08:22:23.001Z,12.48
2022-10-26T08:23:19.883Z,14.32
2022-10-26T08:24:16.464Z,11.10
2022-10-26T08:25:16.278Z,14.85
2022-10-26T08:27:12.568Z,12.30
2022-10-26T08:28:09.167Z,14.35
2022-10-26T08:29:05.852Z,15.30
2022-10-26T08:30:02.388Z,10.98
2022-10-26T08:30:58.971Z,14.45
2022-10-26T08:31:57.021Z,17.95
2022-10-26T08:33:04.767Z,20.67
2022-10-26T08:34:01.917Z,13.80
2022-10-26T08:34:58.505Z,11.90
2022-10-26T08:35:57.825Z,13.15
2022-10-26T08:36:54.368Z,16.67
2022-10-26T08:37:52.566Z,18.42
2022-10-26T08:38:49.252Z,15.32
2022-10-26T08:39:49.097Z,13.73
2022-10-26T08:40:48.664Z,11.93
2022-10-26T08:41:47.975Z,9.25
2022-10-26T08:42:48.953Z,10.13
2022-10-26T08:43:52.322Z,9.45
2022-10-26T08:44:58.496Z,12.65
2022-10-26T08:46:04.552Z,12.77
2022-10-26T08:47:21.382Z,13.68
2022-10-26T08:48:24.358Z,11.02
2022-10-26T08:49:31.064Z,12.55
2022-10-26T08:50:52.047Z,12.73
2022-10-26T08:51:52.124Z,10.82
2022-10-26T08:53:17.294Z,11.82
2022-10-26T08:54:26.651Z,15.35
2022-10-26T08:55:29.049Z,16.13
2022-10-26T08:56:29.119Z,15.82
2022-10-26T08:57:37.142Z,12.77
2022-10-26T08:58:43.949Z,12.65
2022-10-26T08:59:56.567Z,14.35
2022-10-26T09:00:53.604Z,16.70
2022-10-26T09:01:50.270Z,13.90
2022-10-26T09:02:51.564Z,13.77
2022-10-26T09:03:48.205Z,15.13
2022-10-26T09:04:45.348Z,14.45
2022-10-26T09:05:55.835Z,10.45
2022-10-26T09:07:13.699Z,11.02
2022-10-26T09:08:35.530Z,9.60
2022-10-26T09:09:50.639Z,16.60
2022-10-26T09:10:59.669Z,17.20
2022-10-26T09:12:10.371Z,16.13
2022-10-26T09:13:24.707Z,7.38
2022-10-26T09:14:43.582Z,8.90
2022-10-26T09:15:57.144Z,10.63
2022-10-26T09:16:56.431Z,12.30
2022-10-26T09:18:03.956Z,8.00
2022-10-26T09:19:32.554Z,6.75
2022-10-26T09:20:47.768Z,9.82
2022-10-26T09:22:19.631Z,16.42
2022-10-26T09:23:24.665Z,10.13
2022-10-26T09:24:34.197Z,9.25
2022-10-26T09:25:38.720Z,7.70
2022-10-26T09:27:00.123Z,6.72
2022-10-26T09:28:02.158Z,7.30
2022-10-26T09:29:04.680Z,4.63
2022-10-26T09:31:05.025Z,7.93
2022-10-26T09:32:03.918Z,8.77
2022-10-26T09:33:05.824Z,8.65
2022-10-26T09:34:07.000Z,5.70
2022-10-26T09:35:10.672Z,6.22
2022-10-26T09:36:15.975Z,6.40
2022-10-26T09:37:32.197Z,8.23
2022-10-26T09:38:31.541Z,4.47
2022-10-26T09:39:39.599Z,5.07
2022-10-26T09:40:57.079Z,10.98
2022-10-26T09:41:58.917Z,4.95
2022-10-26T09:43:05.744Z,8.30
2022-10-26T09:44:11.783Z,8.63
2022-10-26T09:45:32.771Z,6.47
2022-10-26T09:46:33.781Z,5.15
2022-10-26T09:47:39.349Z,6.13
2022-10-26T09:48:43.008Z,6.75
2022-10-26T09:49:51.897Z,10.55
2022-10-26T09:50:51.392Z,4.22
2022-10-26T09:51:48.684Z,5.97
2022-10-26T09:52:45.346Z,9.82
2022-10-26T09:53:41.936Z,6.32
2022-10-26T09:54:38.566Z,8.45
2022-10-26T09:55:44.254Z,6.47
2022-10-26T09:56:43.771Z,6.65
2022-10-26T09:57:45.020Z,5.88
2022-10-26T09:58:59.549Z,4.35
2022-10-26T09:59:56.468Z,10.70
2022-10-26T10:00:54.121Z,6.80
2022-10-26T10:01:50.795Z,5.65
2022-10-26T10:02:53.618Z,5.63
2022-10-26T10:04:11.394Z,4.78
2022-10-26T10:05:49.918Z,7.45
2022-10-26T10:06:45.659Z,8.63
2022-10-26T10:07:42.246Z,12.57
2022-10-26T10:08:38.789Z,6.43
2022-10-26T10:09:35.403Z,6.80
2022-10-26T10:10:32.917Z,9.77
2022-10-26T10:11:39.279Z,6.30
2022-10-26T10:12:35.910Z,5.70
2022-10-26T10:13:35.780Z,7.78
2022-10-26T10:14:40.621Z,7.20
2022-10-26T10:15:37.304Z,8.88
2022-10-26T10:16:34.012Z,12.10
2022-10-26T10:17:30.808Z,12.00
2022-10-26T10:18:27.463Z,10.98
2022-10-26T10:19:38.301Z,12.70
2022-10-26T10:20:34.879Z,8.27
2022-10-26T10:21:50.127Z,7.53
2022-10-26T10:22:54.806Z,4.72
2022-10-26T10:23:53.291Z,8.40
2022-10-26T10:24:56.634Z,6.72
2022-10-26T10:26:01.840Z,10.57
2022-10-26T10:27:15.163Z,9.68
2022-10-26T10:28:22.477Z,8.95
2022-10-26T10:29:19.095Z,6.55
2022-10-26T10:30:31.422Z,7.38
2022-10-26T10:31:33.022Z,6.15
2022-10-26T10:32:35.475Z,8.45
2022-10-26T10:33:42.712Z,9.18
2022-10-26T10:34:39.268Z,8.77
2022-10-26T10:35:36.111Z,5.63
2022-10-26T10:36:34.059Z,4.85
2022-10-26T10:37:34.988Z,6.45
2022-10-26T10:38:37.928Z,5.13
2022-10-26T10:39:42.662Z,5.57
2022-10-26T10:40:39.269Z,5.35
2022-10-26T10:41:36.787Z,7.75
2022-10-26T10:42:38.641Z,7.88
2022-10-26T10:43:35.349Z,3.92
2022-10-26T10:44:33.986Z,7.03
2022-10-26T10:45:31.307Z,7.53
2022-10-26T10:46:28.598Z,2.28
2022-10-26T10:47:33.619Z,5.85
2022-10-26T10:48:31.726Z,4.25
2022-10-26T10:49:31.064Z,4.28
2022-10-26T10:50:29.257Z,6.78
2022-10-26T10:51:25.949Z,5.40
2022-10-26T10:52:29.076Z,3.72
2022-10-26T10:53:44.327Z,7.18
2022-10-26T10:54:40.982Z,5.00
2022-10-26T10:55:39.457Z,3.67
2022-10-26T10:56:46.839Z,9.05
2022-10-26T10:58:00.768Z,5.63
2022-10-26T10:59:12.394Z,4.88
2022-10-26T11:00:11.954Z,4.90
2022-10-26T11:01:15.705Z,6.40
2022-10-26T11:02:44.753Z,4.05
2022-10-26T11:03:41.287Z,7.65
2022-10-26T11:04:56.248Z,6.20
2022-10-26T11:06:05.787Z,3.88
2022-10-26T11:07:05.378Z,2.97
2022-10-26T11:08:28.424Z,3.00
2022-10-26T11:09:28.832Z,4.53
2022-10-26T11:10:30.635Z,13.15
2022-10-26T11:11:50.864Z,4.65
2022-10-26T11:13:15.079Z,4.65
2022-10-26T11:14:25.195Z,3.20
2022-10-26T11:15:26.268Z,7.43
2022-10-26T11:16:37.570Z,6.25
2022-10-26T11:18:00.328Z,4.93
2022-10-26T11:19:03.363Z,2.97
2022-10-26T11:20:04.139Z,7.38
2022-10-26T11:21:12.750Z,8.50
2022-10-26T11:22:16.940Z,3.17
2022-10-26T11:23:20.994Z,3.42
2022-10-26T11:24:42.110Z,5.88
2022-10-26T11:25:49.990Z,3.72
2022-10-26T11:26:59.168Z,3.38
2022-10-26T11:28:11.923Z,4.03
2022-10-26T11:29:14.687Z,2.90
2022-10-26T11:30:16.407Z,4.57
2022-10-26T11:31:36.084Z,14.60
2022-10-26T11:32:55.841Z,6.55
2022-10-26T11:34:20.082Z,9.35
2022-10-26T11:35:24.720Z,3.38
2022-10-26T11:36:25.278Z,3.90
2022-10-26T11:38:59.938Z,7.32
2022-10-26T11:40:22.566Z,6.47
2022-10-26T11:41:19.123Z,5.88
2022-10-26T11:42:26.040Z,4.55
2022-10-26T11:43:40.137Z,4.53
2022-10-26T11:44:40.241Z,6.82
2022-10-26T11:45:44.228Z,7.45
2022-10-26T11:46:43.276Z,5.20
2022-10-26T11:47:54.967Z,4.05
2022-10-26T11:48:58.954Z,3.33
2022-10-26T11:50:30.813Z,5.43
2022-10-26T11:51:33.102Z,4.10
2022-10-26T11:52:38.277Z,6.20
2022-10-26T11:53:41.068Z,6.80
2022-10-26T11:54:45.742Z,4.03
2022-10-26T11:55:43.475Z,5.97
2022-10-26T11:56:49.581Z,2.67
2022-10-26T11:57:47.165Z,5.72
2022-10-26T11:58:45.965Z,2.28
2022-10-26T11:59:50.516Z,5.32
2022-10-26T12:01:01.736Z,3.08
2022-10-26T12:02:21.363Z,7.40
2022-10-26T12:03:25.116Z,2.90
2022-10-26T12:04:25.571Z,4.60
2022-10-26T12:05:24.500Z,2.83
2022-10-26T12:06:27.528Z,6.35
2022-10-26T12:07:30.055Z,4.80
2022-10-26T12:09:42.203Z,6.50
2022-10-26T12:10:42.696Z,10.48
2022-10-26T12:11:48.583Z,5.10
2022-10-26T12:13:08.203Z,3.60
2022-10-26T12:14:07.779Z,2.95
2022-10-26T12:15:30.842Z,8.63
2022-10-26T12:17:09.044Z,7.88
2022-10-26T12:18:53.841Z,5.20
2022-10-26T12:19:51.573Z,8.48
2022-10-26T12:20:56.308Z,1.58
2022-10-26T12:21:54.215Z,5.53
2022-10-26T12:22:51.241Z,3.60
2022-10-26T12:24:01.456Z,2.35
2022-10-26T12:25:05.870Z,5.32
2022-10-26T12:26:24.009Z,3.38
2022-10-26T12:27:39.175Z,1.52
2022-10-26T12:28:35.743Z,1.77
2022-10-26T12:29:45.109Z,1.80
2022-10-26T12:30:41.664Z,2.90
2022-10-26T12:31:38.271Z,2.65
2022-10-26T12:32:36.490Z,2.78
2022-10-26T12:33:50.231Z,3.03
2022-10-26T12:34:47.161Z,3.42
2022-10-26T12:35:45.037Z,2.75
2022-10-26T12:36:56.461Z,3.17
2022-10-26T12:37:53.361Z,1.92
2022-10-26T12:38:57.833Z,7.53
2022-10-26T12:39:54.421Z,7.22
2022-10-26T12:41:10.707Z,2.53
2022-10-26T12:42:10.049Z,3.10
2022-10-26T12:43:15.475Z,6.40
2022-10-26T12:44:45.704Z,1.20
2022-10-26T12:45:44.000Z,1.17
2022-10-26T12:46:41.083Z,1.88
2022-10-26T12:47:37.588Z,4.13
2022-10-26T12:48:42.200Z,3.15
2022-10-26T12:50:06.851Z,3.50
2022-10-26T12:51:21.906Z,2.15
2022-10-26T12:52:27.675Z,5.28
2022-10-26T12:53:26.122Z,4.18
2022-10-26T12:54:45.442Z,2.35
2022-10-26T12:56:09.905Z,9.05
2022-10-26T12:57:06.423Z,6.00
2022-10-26T12:58:24.167Z,3.03
2022-10-26T12:59:30.037Z,2.88
2022-10-26T13:00:28.106Z,4.10
2022-10-26T13:01:47.919Z,3.95
2022-10-26T13:02:53.386Z,4.90
2022-10-26T13:03:57.758Z,5.47
2022-10-26T13:05:11.560Z,4.85
2022-10-26T13:06:20.810Z,3.13
2022-10-26T13:07:27.787Z,3.15
2022-10-26T13:08:25.086Z,2.45
2022-10-26T13:09:25.186Z,3.47
2022-10-26T13:10:24.610Z,4.13
2022-10-26T13:11:35.172Z,4.25
2022-10-26T13:12:46.337Z,4.32
2022-10-26T13:13:43.432Z,2.25
2022-10-26T13:14:51.734Z,3.47
2022-10-26T13:15:56.158Z,4.13
2022-10-26T13:16:53.346Z,6.55
2022-10-26T13:18:20.615Z,2.67
2022-10-26T13:19:25.708Z,4.40
2022-10-26T13:20:25.391Z,3.42
2022-10-26T13:21:24.831Z,4.22
2022-10-26T13:22:22.882Z,3.65
2022-10-26T13:23:26.636Z,3.38
2022-10-26T13:24:25.727Z,1.90
2022-10-26T13:25:32.057Z,2.58
2022-10-26T13:26:31.127Z,5.97
2022-10-26T13:27:33.915Z,4.90
2022-10-26T13:28:42.335Z,1.58
2022-10-26T13:30:05.061Z,8.82
2022-10-26T13:31:01.769Z,3.33
2022-10-26T13:31:59.978Z,3.60
2022-10-26T13:32:56.896Z,3.22